createdAt,value
2023-04-21T00:02:08.211Z,8.06
2023-04-21T00:05:03.334Z,8.04
2023-04-21T00:07:50.140Z,8.01
2023-04-21T00:10:23.285Z,8.02
2023-04-21T00:13:10.139Z,8.01
2023-04-21T00:15:43.288Z,8.02
2023-04-21T00:18:30.150Z,8.02
2023-04-21T00:21:04.287Z,8.00
2023-04-21T00:23:51.138Z,8.00
2023-04-21T00:26:24.511Z,7.96
2023-04-21T00:29:11.170Z,7.97
2023-04-21T00:31:44.308Z,7.98
2023-04-21T00:34:31.187Z,7.95
2023-04-21T00:37:11.175Z,7.97
2023-04-21T00:39:58.177Z,7.95
2023-04-21T00:42:39.170Z,7.94
2023-04-21T00:45:26.197Z,7.96
2023-04-21T00:47:59.636Z,7.96
2023-04-21T00:50:46.154Z,7.94
2023-04-21T00:53:28.174Z,7.94
2023-04-21T00:56:15.176Z,7.92
2023-04-21T00:58:49.971Z,7.90
2023-04-21T01:01:38.159Z,7.89
2023-04-21T01:04:19.205Z,7.88
2023-04-21T01:07:06.144Z,7.84
2023-04-21T01:09:47.177Z,7.79
2023-04-21T01:12:42.163Z,7.78
2023-04-21T01:15:29.179Z,7.75
2023-04-21T01:18:04.639Z,7.73
2023-04-21T01:20:51.172Z,7.70
2023-04-21T01:23:24.313Z,7.67
2023-04-21T01:26:11.174Z,7.65
2023-04-21T01:28:44.345Z,7.63
2023-04-21T01:31:31.228Z,7.66
2023-04-21T01:34:06.337Z,7.63
2023-04-21T01:36:55.920Z,7.61
2023-04-21T01:39:29.301Z,7.60
2023-04-21T01:42:17.183Z,7.60
2023-04-21T01:44:50.360Z,7.58
2023-04-21T01:47:37.320Z,7.57
2023-04-21T01:50:18.166Z,7.57
2023-04-21T01:53:12.155Z,7.59
2023-04-21T01:55:59.239Z,7.58
2023-04-21T01:58:32.505Z,7.53
2023-04-21T02:01:19.226Z,7.49
2023-04-21T02:03:52.522Z,7.48
2023-04-21T02:06:39.189Z,7.45
2023-04-21T02:09:19.382Z,7.40
2023-04-21T02:12:07.255Z,7.35
2023-04-21T02:14:40.388Z,7.32
2023-04-21T02:17:27.272Z,7.32
2023-04-21T02:20:07.248Z,7.27
2023-04-21T02:22:54.185Z,7.21
2023-04-21T02:25:28.157Z,7.15
2023-04-21T02:28:15.225Z,7.08
2023-04-21T02:30:55.251Z,7.02
2023-04-21T02:33:52.160Z,6.96
2023-04-21T02:36:39.243Z,6.89
2023-04-21T02:39:19.441Z,6.83
2023-04-21T02:42:13.256Z,6.78
2023-04-21T02:45:00.210Z,6.71
2023-04-21T02:47:33.374Z,6.66
2023-04-21T02:50:20.236Z,6.63
2023-04-21T02:52:53.314Z,6.59
2023-04-21T02:55:40.242Z,6.54
2023-04-21T02:58:13.324Z,6.49
2023-04-21T03:01:00.353Z,6.46
2023-04-21T03:03:33.598Z,6.42
2023-04-21T03:06:21.225Z,6.38
2023-04-21T03:08:56.348Z,6.35
2023-04-21T03:11:43.229Z,6.33
2023-04-21T03:14:16.369Z,6.32
2023-04-21T03:17:03.223Z,6.30
2023-04-21T03:19:36.309Z,6.31
2023-04-21T03:22:23.215Z,6.30
2023-04-21T03:25:03.219Z,6.28
2023-04-21T03:27:50.207Z,6.27
2023-04-21T03:30:30.208Z,6.27
2023-04-21T03:33:24.212Z,6.27
2023-04-21T03:36:11.271Z,6.29
2023-04-21T03:38:44.308Z,6.31
2023-04-21T03:41:33.516Z,6.25
2023-04-21T03:44:07.349Z,6.24
2023-04-21T03:46:54.251Z,6.26
2023-04-21T03:49:28.377Z,6.24
2023-04-21T03:52:15.220Z,6.24
2023-04-21T03:54:48.373Z,6.27
2023-04-21T03:57:37.284Z,6.27
2023-04-21T04:00:11.396Z,6.28
2023-04-21T04:02:58.356Z,6.33
2023-04-21T04:05:38.475Z,6.36
2023-04-21T04:08:32.225Z,6.38
2023-04-21T04:11:21.568Z,6.40
2023-04-21T04:14:01.371Z,6.40
2023-04-21T04:16:48.230Z,6.37
2023-04-21T04:19:21.663Z,6.37
2023-04-21T04:22:23.276Z,6.36
2023-04-21T04:25:17.269Z,6.33
2023-04-21T04:28:04.229Z,6.33
2023-04-21T04:30:44.226Z,6.34
2023-04-21T04:33:38.245Z,6.39
2023-04-21T04:36:27.289Z,6.40
2023-04-21T04:39:00.332Z,6.42
2023-04-21T04:41:48.227Z,6.45
2023-04-21T04:44:30.226Z,6.51
2023-04-21T04:47:17.292Z,6.60
2023-04-21T04:49:59.544Z,6.69
2023-04-21T04:52:54.256Z,6.75
2023-04-21T04:55:41.270Z,6.77
2023-04-21T04:58:21.265Z,6.80
2023-04-21T05:01:36.284Z,6.87
2023-04-21T05:04:23.905Z,6.95
2023-04-21T05:06:57.330Z,6.98
2023-04-21T05:09:44.278Z,7.06
2023-04-21T05:12:17.343Z,7.11
2023-04-21T05:15:04.255Z,7.16
2023-04-21T05:17:37.429Z,7.21
2023-04-21T05:20:24.255Z,7.30
2023-04-21T05:22:57.329Z,7.42
2023-04-21T05:25:51.263Z,7.52
2023-04-21T05:28:45.305Z,7.68
2023-04-21T05:31:32.274Z,7.78
2023-04-21T05:34:12.291Z,7.93
2023-04-21T05:36:59.280Z,8.04
2023-04-21T05:39:34.364Z,8.19
2023-04-21T05:42:21.270Z,8.32
2023-04-21T05:45:01.289Z,8.47
2023-04-21T05:47:55.307Z,8.62
2023-04-21T05:50:49.264Z,8.80
2023-04-21T05:53:36.263Z,9.03
2023-04-21T05:56:16.238Z,9.31
2023-04-21T05:59:10.274Z,9.49
2023-04-21T06:01:57.285Z,9.68
2023-04-21T06:04:37.432Z,9.87
2023-04-21T06:07:25.286Z,10.09
2023-04-21T06:09:58.487Z,10.23
2023-04-21T06:12:45.263Z,10.37
2023-04-21T06:15:25.281Z,10.54
2023-04-21T06:18:12.316Z,10.78
2023-04-21T06:20:52.281Z,10.98
2023-04-21T06:23:39.284Z,11.21
2023-04-21T06:26:14.394Z,11.48
2023-04-21T06:29:01.283Z,11.77
2023-04-21T06:31:41.304Z,12.05
2023-04-21T06:34:35.261Z,12.30
2023-04-21T06:37:31.338Z,12.59
2023-04-21T06:40:25.424Z,12.79
2023-04-21T06:43:19.290Z,13.05
2023-04-21T06:46:13.285Z,13.26
2023-04-21T06:49:07.308Z,13.50
2023-04-21T06:51:54.284Z,13.76
2023-04-21T06:54:27.455Z,13.97
2023-04-21T06:57:14.320Z,14.20
2023-04-21T06:59:47.395Z,14.40
2023-04-21T07:02:34.366Z,14.66
2023-04-21T07:05:14.295Z,14.91
2023-04-21T07:08:08.336Z,15.16
2023-04-21T07:10:55.302Z,15.39
2023-04-21T07:13:35.318Z,15.42
2023-04-21T07:16:22.362Z,15.63
2023-04-21T07:19:02.307Z,15.85
2023-04-21T07:21:56.318Z,16.08
2023-04-21T07:24:44.294Z,16.21
2023-04-21T07:27:38.323Z,16.13
2023-04-21T07:30:32.336Z,16.15
2023-04-21T07:33:20.309Z,16.29
2023-04-21T07:35:53.505Z,16.57
2023-04-21T07:38:40.306Z,16.66
2023-04-21T07:41:20.378Z,16.62
2023-04-21T07:44:07.328Z,16.89
2023-04-21T07:46:47.329Z,17.12
2023-04-21T07:49:41.330Z,17.20
2023-04-21T07:52:28.328Z,17.13
2023-04-21T07:55:01.434Z,17.21
2023-04-21T07:57:48.315Z,17.32
2023-04-21T08:00:22.421Z,17.48
2023-04-21T08:03:09.481Z,17.23
2023-04-21T08:05:43.566Z,17.35
2023-04-21T08:08:31.968Z,17.67
2023-04-21T08:11:05.574Z,17.68
2023-04-21T08:13:52.365Z,17.79
2023-04-21T08:16:32.339Z,18.13
2023-04-21T08:19:26.338Z,18.67
2023-04-21T08:22:20.347Z,19.07
2023-04-21T08:25:14.334Z,19.12
2023-04-21T08:28:08.376Z,19.00
2023-04-21T08:30:55.356Z,19.23
2023-04-21T08:33:28.439Z,19.65
2023-04-21T08:36:26.151Z,19.64
2023-04-21T08:39:09.356Z,19.69
2023-04-21T08:41:57.389Z,19.69
2023-04-21T08:44:30.461Z,19.83
2023-04-21T08:47:18.378Z,19.13
2023-04-21T08:49:58.353Z,19.08
2023-04-21T08:52:45.383Z,19.03
2023-04-21T08:55:26.357Z,18.90
2023-04-21T08:58:20.461Z,19.06
2023-04-21T09:01:14.391Z,18.99
2023-04-21T09:04:01.436Z,19.12
2023-04-21T09:06:47.607Z,19.13
2023-04-21T09:09:34.400Z,19.43
2023-04-21T09:12:15.391Z,19.29
2023-04-21T09:15:04.371Z,19.01
2023-04-21T09:17:38.764Z,18.92
2023-04-21T09:20:28.385Z,18.40
2023-04-21T09:23:08.377Z,17.92
2023-04-21T09:26:02.417Z,18.55
2023-04-21T09:28:51.382Z,19.25
2023-04-21T09:31:29.663Z,19.19
2023-04-21T09:34:31.384Z,18.29
2023-04-21T09:37:09.474Z,17.79
2023-04-21T09:40:04.281Z,17.50
2023-04-21T09:42:40.980Z,17.22
2023-04-21T09:45:40.342Z,17.05
2023-04-21T09:48:24.420Z,16.95
2023-04-21T09:54:29.666Z,17.48
2023-04-21T09:57:16.390Z,18.29
2023-04-21T10:00:18.428Z,18.88
2023-04-21T10:03:11.647Z,19.10
2023-04-21T10:05:45.530Z,19.16
2023-04-21T10:08:32.390Z,19.62
2023-04-21T10:11:07.552Z,19.95
2023-04-21T10:13:54.412Z,19.56
2023-04-21T10:16:27.716Z,19.25
2023-04-21T10:19:34.573Z,18.67
2023-04-21T10:22:08.259Z,18.08
2023-04-21T10:24:49.418Z,18.03
2023-04-21T10:27:51.424Z,17.88
2023-04-21T10:30:45.460Z,17.42
2023-04-21T10:33:34.557Z,17.38
2023-04-21T10:36:08.561Z,17.42
2023-04-21T10:39:05.411Z,17.45
2023-04-21T10:41:47.463Z,17.37
2023-04-21T10:44:42.428Z,17.19
2023-04-21T10:47:33.459Z,17.04
2023-04-21T10:50:18.644Z,17.09
2023-04-21T10:53:25.424Z,17.27
2023-04-21T10:56:06.490Z,17.16
2023-04-21T10:58:53.427Z,16.93
2023-04-21T11:01:26.583Z,17.43
2023-04-21T11:04:13.723Z,18.01
2023-04-21T11:06:54.416Z,18.46
2023-04-21T11:09:42.437Z,18.63
2023-04-21T11:12:21.544Z,18.57
2023-04-21T11:15:12.428Z,18.16
2023-04-21T11:17:52.533Z,17.66
2023-04-21T11:20:47.443Z,17.29
2023-04-21T11:23:41.449Z,16.89
2023-04-21T11:26:50.451Z,16.72
2023-04-21T11:29:37.446Z,16.96
2023-04-21T11:32:15.660Z,16.94
2023-04-21T11:35:02.471Z,17.00
2023-04-21T11:37:35.563Z,17.02
2023-04-21T11:40:22.446Z,17.23
2023-04-21T11:42:55.563Z,17.05
2023-04-21T11:45:43.448Z,16.57
2023-04-21T11:48:29.501Z,16.54
2023-04-21T11:51:31.471Z,17.15
2023-04-21T11:54:20.461Z,17.31
2023-04-21T11:56:54.577Z,17.17
2023-04-21T11:59:41.464Z,16.98
2023-04-21T12:02:20.645Z,16.61
2023-04-21T12:05:11.498Z,16.64
2023-04-21T12:07:52.308Z,16.98
2023-04-21T12:10:39.481Z,17.39
2023-04-21T12:13:12.555Z,17.16
2023-04-21T12:15:59.562Z,16.62
2023-04-21T12:18:38.591Z,16.54
2023-04-21T12:21:25.482Z,16.47
2023-04-21T12:23:58.724Z,16.33
2023-04-21T12:26:52.466Z,16.23
2023-04-21T12:29:46.477Z,16.25
2023-04-21T12:32:33.551Z,16.10
2023-04-21T12:35:06.593Z,15.86
2023-04-21T12:37:53.497Z,15.64
2023-04-21T12:40:27.233Z,15.53
2023-04-21T12:43:14.480Z,15.41
2023-04-21T12:45:54.602Z,15.32
2023-04-21T12:48:41.506Z,15.27
2023-04-21T12:51:14.704Z,15.30
2023-04-21T12:54:01.505Z,15.39
2023-04-21T12:56:41.543Z,15.40
2023-04-21T12:59:35.489Z,15.47
2023-04-21T13:02:22.662Z,15.41
2023-04-21T13:04:56.584Z,15.35
2023-04-21T13:07:43.512Z,15.34
2023-04-21T13:10:16.659Z,15.30
2023-04-21T13:13:03.529Z,15.32
2023-04-21T13:15:43.521Z,15.39
2023-04-21T13:18:37.482Z,15.32
2023-04-21T13:21:24.524Z,15.21
2023-04-21T13:24:04.500Z,15.10
2023-04-21T13:26:58.536Z,15.00
2023-04-21T13:29:53.506Z,14.97
2023-04-21T13:32:47.549Z,14.97
2023-04-21T13:35:34.526Z,14.97
2023-04-21T13:38:07.754Z,15.00
2023-04-21T13:40:55.530Z,14.99
2023-04-21T13:43:28.617Z,15.02
2023-04-21T13:46:15.576Z,15.08
2023-04-21T13:48:56.512Z,15.13
2023-04-21T13:51:43.523Z,15.17
2023-04-21T13:54:16.701Z,15.13
2023-04-21T13:57:03.562Z,15.04
2023-04-21T13:59:43.530Z,14.94
2023-04-21T14:02:37.664Z,14.80
2023-04-21T14:05:24.696Z,14.74
2023-04-21T14:08:04.545Z,14.67
2023-04-21T14:10:58.545Z,14.57
2023-04-21T14:14:00.829Z,14.53
2023-04-21T14:16:45.564Z,14.56
2023-04-21T14:19:39.553Z,14.59
2023-04-21T14:22:27.530Z,14.67
2023-04-21T14:25:07.555Z,14.66
2023-04-21T14:28:01.529Z,14.68
2023-04-21T14:30:49.542Z,14.75
2023-04-21T14:33:22.725Z,14.81
2023-04-21T14:36:09.526Z,14.83
2023-04-21T14:38:43.240Z,14.91
2023-04-21T14:41:29.591Z,15.02
2023-04-21T14:44:03.923Z,14.95
2023-04-21T14:46:57.373Z,14.86
2023-04-21T14:49:34.900Z,14.80
2023-04-21T14:52:21.561Z,14.72
2023-04-21T14:55:01.573Z,14.67
2023-04-21T14:57:55.573Z,14.62
2023-04-21T15:00:43.579Z,14.57
2023-04-21T15:03:16.744Z,14.55
2023-04-21T15:06:03.599Z,14.56
2023-04-21T15:08:43.563Z,14.61
2023-04-21T15:11:30.576Z,14.59
2023-04-21T15:14:10.586Z,14.57
2023-04-21T15:17:04.636Z,14.52
2023-04-21T15:19:51.618Z,14.49
2023-04-21T15:22:25.672Z,14.46
2023-04-21T15:25:12.586Z,14.45
2023-04-21T15:27:46.069Z,14.42
2023-04-21T15:30:32.577Z,14.40
2023-04-21T15:33:05.765Z,14.37
2023-04-21T15:35:54.576Z,14.35
2023-04-21T15:38:27.820Z,14.37
2023-04-21T15:41:15.615Z,14.33
2023-04-21T15:43:48.745Z,14.32
2023-04-21T15:46:35.623Z,14.30
2023-04-21T15:49:15.614Z,14.28
2023-04-21T15:52:11.680Z,14.23
2023-04-21T15:54:58.622Z,14.18
2023-04-21T15:57:31.735Z,14.12
2023-04-21T16:00:19.648Z,14.03
2023-04-21T16:02:53.921Z,13.99
2023-04-21T16:05:40.661Z,13.96
2023-04-21T16:08:13.734Z,13.94
2023-04-21T16:11:00.701Z,13.90
2023-04-21T16:13:41.587Z,13.87
2023-04-21T16:16:35.664Z,13.82
2023-04-21T16:19:22.614Z,13.76
2023-04-21T16:22:02.785Z,13.73
2023-04-21T16:24:49.627Z,13.68
2023-04-21T16:27:29.610Z,13.66
2023-04-21T16:30:16.601Z,13.60
2023-04-21T16:32:49.717Z,13.58
2023-04-21T16:35:36.711Z,13.55
2023-04-21T16:38:17.655Z,13.53
2023-04-21T16:41:11.649Z,13.47
2023-04-21T16:44:05.619Z,13.43
2023-04-21T16:46:52.739Z,13.34
2023-04-21T16:49:32.780Z,13.30
2023-04-21T16:52:19.639Z,13.29
2023-04-21T16:54:52.744Z,13.27
2023-04-21T16:57:40.702Z,13.25
2023-04-21T17:00:14.707Z,13.22
2023-04-21T17:03:01.795Z,13.16
2023-04-21T17:05:34.737Z,13.08
2023-04-21T17:08:21.640Z,13.00
2023-04-21T17:11:01.621Z,12.92
2023-04-21T17:13:48.634Z,12.81
2023-04-21T17:16:21.797Z,12.70
2023-04-21T17:19:08.603Z,12.59
2023-04-21T17:21:48.649Z,12.50
2023-04-21T17:24:52.307Z,12.36
2023-04-21T17:27:49.756Z,12.19
2023-04-21T17:30:36.640Z,12.05
2023-04-21T17:36:03.127Z,11.88
2023-04-21T17:38:36.833Z,11.78
2023-04-21T17:41:23.640Z,11.66
2023-04-21T17:43:56.739Z,11.55
2023-04-21T17:46:43.812Z,11.44
2023-04-21T17:49:18.240Z,11.35
2023-04-21T17:52:04.622Z,11.24
2023-04-21T17:54:37.939Z,11.16
2023-04-21T17:57:24.645Z,11.07
2023-04-21T18:00:04.648Z,10.96
2023-04-21T18:02:51.718Z,10.86
2023-04-21T18:05:24.766Z,10.78
2023-04-21T18:08:11.647Z,10.69
2023-04-21T18:10:44.737Z,10.57
2023-04-21T18:13:31.658Z,10.45
2023-04-21T18:16:04.897Z,10.35
2023-04-21T18:18:53.657Z,10.28
2023-04-21T18:21:28.228Z,10.19
2023-04-21T18:24:14.645Z,10.13
2023-04-21T18:26:47.777Z,10.02
2023-04-21T18:29:34.692Z,9.92
2023-04-21T18:32:07.884Z,9.83
2023-04-21T18:34:54.664Z,9.71
2023-04-21T18:37:27.782Z,9.64
2023-04-21T18:40:15.677Z,9.55
2023-04-21T18:42:55.654Z,9.49
2023-04-21T18:45:42.688Z,9.40
2023-04-21T18:48:22.692Z,9.32
2023-04-21T18:51:09.659Z,9.26
2023-04-21T18:53:49.688Z,9.20
2023-04-21T18:56:37.673Z,9.15
2023-04-21T18:59:17.695Z,9.09
2023-04-21T19:02:12.754Z,9.02
2023-04-21T19:04:59.690Z,8.97
2023-04-21T19:07:39.679Z,8.90
2023-04-21T19:10:27.666Z,8.82
2023-04-21T19:13:00.826Z,8.72
2023-04-21T19:15:47.703Z,8.67
2023-04-21T19:18:20.881Z,8.63
2023-04-21T19:21:07.716Z,8.57
2023-04-21T19:23:40.771Z,8.54
2023-04-21T19:26:34.692Z,8.47
2023-04-21T19:29:21.658Z,8.37
2023-04-21T19:31:54.939Z,8.28
2023-04-21T19:34:41.684Z,8.19
2023-04-21T19:37:14.832Z,8.12
2023-04-21T19:40:01.688Z,8.07
2023-04-21T19:42:34.793Z,8.00
2023-04-21T19:45:21.700Z,7.95
2023-04-21T19:47:54.902Z,7.90
2023-04-21T19:50:42.711Z,7.88
2023-04-21T19:53:15.874Z,7.78
2023-04-21T19:56:02.685Z,7.72
2023-04-21T19:58:40.634Z,7.67
2023-04-21T20:01:27.734Z,7.65
2023-04-21T20:04:01.103Z,7.62
2023-04-21T20:06:47.697Z,7.56
2023-04-21T20:09:20.889Z,7.47
2023-04-21T20:12:07.717Z,7.43
2023-04-21T20:14:47.708Z,7.37
2023-04-21T20:17:35.733Z,7.31
2023-04-21T20:20:09.496Z,7.25
2023-04-21T20:22:56.728Z,7.21
2023-04-21T20:25:36.723Z,7.16
2023-04-21T20:28:30.707Z,7.11
2023-04-21T20:31:17.727Z,7.05
2023-04-21T20:33:57.705Z,7.00
2023-04-21T20:36:44.730Z,6.96
2023-04-21T20:39:19.056Z,6.94
2023-04-21T20:42:12.989Z,6.90
2023-04-21T20:44:48.193Z,6.87
2023-04-21T20:47:35.719Z,6.83
2023-04-21T20:50:09.026Z,6.77
2023-04-21T20:52:56.717Z,6.72
2023-04-21T20:55:36.743Z,6.68
2023-04-21T20:58:31.757Z,6.65
2023-04-21T21:01:19.789Z,6.61
2023-04-21T21:03:59.887Z,6.59
2023-04-21T21:06:46.703Z,6.54
2023-04-21T21:09:26.736Z,6.49
2023-04-21T21:12:13.735Z,6.42
2023-04-21T21:14:47.015Z,6.35
2023-04-21T21:17:33.783Z,6.28
2023-04-21T21:20:07.215Z,6.23
2023-04-21T21:22:53.747Z,6.19
2023-04-21T21:25:26.932Z,6.17
2023-04-21T21:28:13.763Z,6.15
2023-04-21T21:30:46.842Z,6.11
2023-04-21T21:33:33.729Z,6.05
2023-04-21T21:36:13.743Z,6.02
2023-04-21T21:39:00.745Z,5.98
2023-04-21T21:41:40.713Z,5.94
2023-04-21T21:44:27.731Z,5.88
2023-04-21T21:47:07.791Z,5.85
2023-04-21T21:50:02.750Z,5.77
2023-04-21T21:52:49.742Z,5.73
2023-04-21T21:55:29.761Z,5.68
2023-04-21T21:58:16.738Z,5.64
2023-04-21T22:00:52.014Z,5.62
2023-04-21T22:03:39.049Z,5.61
2023-04-21T22:06:16.299Z,5.58
2023-04-21T22:09:03.749Z,5.55
2023-04-21T22:11:37.133Z,5.57
2023-04-21T22:14:24.292Z,5.58
2023-04-21T22:16:57.878Z,5.55
2023-04-21T22:19:47.773Z,5.51
2023-04-21T22:22:20.910Z,5.46
2023-04-21T22:25:07.769Z,5.40
2023-04-21T22:27:47.795Z,5.36
2023-04-21T22:30:34.755Z,5.33
2023-04-21T22:33:07.948Z,5.30
2023-04-21T22:35:54.766Z,5.25
2023-04-21T22:38:34.752Z,5.21
2023-04-21T22:41:28.757Z,5.14
2023-04-21T22:44:22.801Z,5.07
2023-04-21T22:47:16.908Z,5.03
2023-04-21T22:50:03.773Z,4.97
2023-04-21T22:52:36.928Z,4.95
2023-04-21T22:55:23.772Z,4.92
2023-04-21T22:57:56.917Z,4.89
2023-04-21T23:00:43.822Z,4.85
2023-04-21T23:03:17.108Z,4.81
2023-04-21T23:06:03.790Z,4.77
2023-04-21T23:08:36.978Z,4.73
2023-04-21T23:11:23.780Z,4.70
2023-04-21T23:13:56.912Z,4.65
2023-04-21T23:16:43.843Z,4.60
2023-04-21T23:19:16.915Z,4.56
2023-04-21T23:22:03.787Z,4.54
2023-04-21T23:24:36.985Z,4.48
2023-04-21T23:27:30.796Z,4.43
2023-04-21T23:30:18.785Z,4.40
2023-04-21T23:32:58.841Z,4.37
2023-04-21T23:35:45.793Z,4.34
2023-04-21T23:38:19.138Z,4.30
2023-04-21T23:41:05.797Z,4.26
2023-04-21T23:43:45.788Z,4.26
2023-04-21T23:46:39.875Z,4.26
2023-04-21T23:49:26.772Z,4.24
2023-04-21T23:52:06.802Z,4.23
2023-04-21T23:54:53.786Z,4.22
2023-04-21T23:57:26.897Z,4.19
